sensor_id;sensor_type;location;lat;lon;timestamp;temperature;humidity
490;DHT22;231;48.120;11.576;2023-12-29T00:02:22;8.90;21.60
490;DHT22;231;48.120;11.576;2023-12-29T00:04:49;8.80;21.90
490;DHT22;231;48.120;11.576;2023-12-29T00:07:16;8.80;22.50
490;DHT22;231;48.120;11.576;2023-12-29T00:09:43;8.70;23.30
490;DHT22;231;48.120;11.576;2023-12-29T00:12:10;8.60;23.60
490;DHT22;231;48.120;11.576;2023-12-29T00:14:39;8.50;24.10
490;DHT22;231;48.120;11.576;2023-12-29T00:17:06;8.40;25.00
490;DHT22;231;48.120;11.576;2023-12-29T00:19:33;8.30;25.40
490;DHT22;231;48.120;11.576;2023-12-29T00:22:00;8.20;25.90
490;DHT22;231;48.120;11.576;2023-12-29T00:24:28;8.10;26.20
490;DHT22;231;48.120;11.576;2023-12-29T00:26:56;8.00;26.50
490;DHT22;231;48.120;11.576;2023-12-29T00:29:23;7.90;26.80
490;DHT22;231;48.120;11.576;2023-12-29T00:31:51;7.90;26.80
490;DHT22;231;48.120;11.576;2023-12-29T00:34:18;7.80;26.40
490;DHT22;231;48.120;11.576;2023-12-29T00:36:45;7.70;26.50
490;DHT22;231;48.120;11.576;2023-12-29T00:39:12;7.70;26.50
490;DHT22;231;48.120;11.576;2023-12-29T00:41:40;7.60;26.50
490;DHT22;231;48.120;11.576;2023-12-29T00:44:07;7.50;26.80
490;DHT22;231;48.120;11.576;2023-12-29T00:46:34;7.50;26.80
490;DHT22;231;48.120;11.576;2023-12-29T00:49:02;7.40;26.90
490;DHT22;231;48.120;11.576;2023-12-29T00:51:29;7.40;26.70
490;DHT22;231;48.120;11.576;2023-12-29T00:53:55;7.40;26.40
490;DHT22;231;48.120;11.576;2023-12-29T00:56:22;7.40;27.00
490;DHT22;231;48.120;11.576;2023-12-29T00:58:49;7.30;26.60
490;DHT22;231;48.120;11.576;2023-12-29T01:01:16;7.30;26.30
490;DHT22;231;48.120;11.576;2023-12-29T01:03:42;7.20;26.60
490;DHT22;231;48.120;11.576;2023-12-29T01:06:11;7.20;26.80
490;DHT22;231;48.120;11.576;2023-12-29T01:08:37;7.10;26.90
490;DHT22;231;48.120;11.576;2023-12-29T01:11:04;7.10;27.20
490;DHT22;231;48.120;11.576;2023-12-29T01:13:31;7.10;27.60
490;DHT22;231;48.120;11.576;2023-12-29T01:15:58;7.00;27.20
490;DHT22;231;48.120;11.576;2023-12-29T01:18:25;7.00;27.40
490;DHT22;231;48.120;11.576;2023-12-29T01:20:52;6.90;27.80
490;DHT22;231;48.120;11.576;2023-12-29T01:23:20;6.80;28.30
490;DHT22;231;48.120;11.576;2023-12-29T01:25:47;6.70;28.60
490;DHT22;231;48.120;11.576;2023-12-29T01:28:14;6.60;29.10
490;DHT22;231;48.120;11.576;2023-12-29T01:30:40;6.50;29.70
490;DHT22;231;48.120;11.576;2023-12-29T01:33:07;6.40;30.90
490;DHT22;231;48.120;11.576;2023-12-29T01:35:34;6.40;32.30
490;DHT22;231;48.120;11.576;2023-12-29T01:38:02;6.40;33.40
490;DHT22;231;48.120;11.576;2023-12-29T01:40:31;6.40;34.00
490;DHT22;231;48.120;11.576;2023-12-29T01:42:57;6.40;34.00
490;DHT22;231;48.120;11.576;2023-12-29T01:45:24;6.30;34.60
490;DHT22;231;48.120;11.576;2023-12-29T01:47:52;6.30;35.10
490;DHT22;231;48.120;11.576;2023-12-29T01:50:21;6.30;35.30
490;DHT22;231;48.120;11.576;2023-12-29T01:52:49;6.30;35.30
490;DHT22;231;48.120;11.576;2023-12-29T01:55:18;6.20;36.00
490;DHT22;231;48.120;11.576;2023-12-29T01:57:48;6.20;36.10
490;DHT22;231;48.120;11.576;2023-12-29T02:00:16;6.30;35.90
490;DHT22;231;48.120;11.576;2023-12-29T02:02:44;6.30;35.10
490;DHT22;231;48.120;11.576;2023-12-29T02:05:13;6.30;34.40
490;DHT22;231;48.120;11.576;2023-12-29T02:07:41;6.40;33.60
490;DHT22;231;48.120;11.576;2023-12-29T02:10:09;6.40;32.80
490;DHT22;231;48.120;11.576;2023-12-29T02:12:39;6.50;32.30
490;DHT22;231;48.120;11.576;2023-12-29T02:15:08;6.40;31.40
490;DHT22;231;48.120;11.576;2023-12-29T02:17:40;6.50;31.00
490;DHT22;231;48.120;11.576;2023-12-29T02:20:08;6.50;30.60
490;DHT22;231;48.120;11.576;2023-12-29T08:25:03;10.30;16.70
490;DHT22;231;48.120;11.576;2023-12-29T08:27:30;10.30;16.60
490;DHT22;231;48.120;11.576;2023-12-29T08:29:57;10.40;16.40
490;DHT22;231;48.120;11.576;2023-12-29T08:32:24;10.40;16.40
490;DHT22;231;48.120;11.576;2023-12-29T08:34:51;10.50;16.00
490;DHT22;231;48.120;11.576;2023-12-29T08:37:18;10.60;15.60
490;DHT22;231;48.120;11.576;2023-12-29T08:39:46;10.80;15.40
490;DHT22;231;48.120;11.576;2023-12-29T08:42:15;10.90;14.70
490;DHT22;231;48.120;11.576;2023-12-29T08:44:42;11.00;14.20
490;DHT22;231;48.120;11.576;2023-12-29T08:47:10;11.20;14.50
490;DHT22;231;48.120;11.576;2023-12-29T08:49:37;11.50;13.10
490;DHT22;231;48.120;11.576;2023-12-29T08:52:06;11.80;12.30
490;DHT22;231;48.120;11.576;2023-12-29T08:54:34;12.10;11.30
490;DHT22;231;48.120;11.576;2023-12-29T08:57:02;12.30;10.40
490;DHT22;231;48.120;11.576;2023-12-29T08:59:30;12.10;10.20
490;DHT22;231;48.120;11.576;2023-12-29T09:01:57;11.90;10.60
490;DHT22;231;48.120;11.576;2023-12-29T09:04:24;11.70;11.20
490;DHT22;231;48.120;11.576;2023-12-29T09:06:51;11.50;11.80
490;DHT22;231;48.120;11.576;2023-12-29T09:09:18;11.50;12.10
490;DHT22;231;48.120;11.576;2023-12-29T09:11:45;11.40;12.50
490;DHT22;231;48.120;11.576;2023-12-29T09:14:13;11.40;12.90
490;DHT22;231;48.120;11.576;2023-12-29T09:16:41;11.40;12.70
490;DHT22;231;48.120;11.576;2023-12-29T09:19:08;11.50;12.70
490;DHT22;231;48.120;11.576;2023-12-29T09:21:35;11.80;12.40
490;DHT22;231;48.120;11.576;2023-12-29T09:24:02;12.00;12.10
490;DHT22;231;48.120;11.576;2023-12-29T09:26:28;12.30;11.40
490;DHT22;231;48.120;11.576;2023-12-29T09:28:55;12.50;10.70
490;DHT22;231;48.120;11.576;2023-12-29T09:31:22;12.70;10.20
490;DHT22;231;48.120;11.576;2023-12-29T09:33:50;12.90;9.30
490;DHT22;231;48.120;11.576;2023-12-29T09:36:17;13.10;8.90
490;DHT22;231;48.120;11.576;2023-12-29T09:38:44;13.30;8.60
490;DHT22;231;48.120;11.576;2023-12-29T09:41:14;13.60;7.80
490;DHT22;231;48.120;11.576;2023-12-29T09:43:41;13.60;7.20
490;DHT22;231;48.120;11.576;2023-12-29T09:46:10;13.50;7.30
490;DHT22;231;48.120;11.576;2023-12-29T09:48:42;13.30;7.60
490;DHT22;231;48.120;11.576;2023-12-29T09:51:13;13.30;7.90
490;DHT22;231;48.120;11.576;2023-12-29T09:53:42;13.40;8.10
490;DHT22;231;48.120;11.576;2023-12-29T09:56:09;13.40;7.50
490;DHT22;231;48.120;11.576;2023-12-29T09:58:36;13.40;7.40
490;DHT22;231;48.120;11.576;2023-12-29T10:01:04;13.30;7.50
490;DHT22;231;48.120;11.576;2023-12-29T10:03:32;13.30;7.60
490;DHT22;231;48.120;11.576;2023-12-29T10:06:00;13.40;7.60
490;DHT22;231;48.120;11.576;2023-12-29T10:08:33;13.30;7.50
490;DHT22;231;48.120;11.576;2023-12-29T10:11:01;13.20;7.60
490;DHT22;231;48.120;11.576;2023-12-29T10:13:29;13.00;8.00
490;DHT22;231;48.120;11.576;2023-12-29T10:16:07;12.90;8.30
490;DHT22;231;48.120;11.576;2023-12-29T10:18:40;12.90;8.60
490;DHT22;231;48.120;11.576;2023-12-29T10:21:15;13.00;8.90
490;DHT22;231;48.120;11.576;2023-12-29T10:23:50;13.10;8.70
490;DHT22;231;48.120;11.576;2023-12-29T10:26:20;13.10;8.90
490;DHT22;231;48.120;11.576;2023-12-29T10:28:47;13.10;9.20
490;DHT22;231;48.120;11.576;2023-12-29T10:31:15;13.10;9.60
490;DHT22;231;48.120;11.576;2023-12-29T10:33:42;13.10;10.10
490;DHT22;231;48.120;11.576;2023-12-29T10:36:09;13.00;10.50
490;DHT22;231;48.120;11.576;2023-12-29T10:38:39;13.00;10.80
490;DHT22;231;48.120;11.576;2023-12-29T10:41:12;13.20;10.90
490;DHT22;231;48.120;11.576;2023-12-29T10:43:40;13.30;10.40
490;DHT22;231;48.120;11.576;2023-12-29T10:46:09;13.50;10.20
490;DHT22;231;48.120;11.576;2023-12-29T10:48:36;13.60;10.20
490;DHT22;231;48.120;11.576;2023-12-29T10:51:04;13.70;9.80
490;DHT22;231;48.120;11.576;2023-12-29T10:53:32;13.80;9.60
490;DHT22;231;48.120;11.576;2023-12-29T10:55:59;13.90;9.40
490;DHT22;231;48.120;11.576;2023-12-29T10:58:44;13.90;9.00
490;DHT22;231;48.120;11.576;2023-12-29T11:01:26;13.90;9.00
490;DHT22;231;48.120;11.576;2023-12-29T11:04:00;13.90;9.10
490;DHT22;231;48.120;11.576;2023-12-29T11:06:27;13.90;9.00
490;DHT22;231;48.120;11.576;2023-12-29T11:08:55;13.90;9.00
490;DHT22;231;48.120;11.576;2023-12-29T11:11:23;13.90;9.00
490;DHT22;231;48.120;11.576;2023-12-29T11:13:51;13.90;9.00
490;DHT22;231;48.120;11.576;2023-12-29T11:16:20;14.10;8.60
490;DHT22;231;48.120;11.576;2023-12-29T11:18:49;14.40;8.20
490;DHT22;231;48.120;11.576;2023-12-29T11:21:19;14.70;7.50
490;DHT22;231;48.120;11.576;2023-12-29T11:23:48;14.90;6.80
490;DHT22;231;48.120;11.576;2023-12-29T11:26:15;14.80;7.00
490;DHT22;231;48.120;11.576;2023-12-29T11:28:42;14.80;6.40
490;DHT22;231;48.120;11.576;2023-12-29T11:31:11;14.80;6.70
490;DHT22;231;48.120;11.576;2023-12-29T11:33:41;14.80;6.90
490;DHT22;231;48.120;11.576;2023-12-29T11:36:12;14.80;6.70
490;DHT22;231;48.120;11.576;2023-12-29T11:38:51;14.80;6.90
490;DHT22;231;48.120;11.576;2023-12-29T11:41:24;14.90;6.50
490;DHT22;231;48.120;11.576;2023-12-29T11:43:59;14.90;6.80
490;DHT22;231;48.120;11.576;2023-12-29T11:46:35;14.80;6.60
490;DHT22;231;48.120;11.576;2023-12-29T11:49:02;14.80;6.70
490;DHT22;231;48.120;11.576;2023-12-29T11:51:31;14.80;6.40
490;DHT22;231;48.120;11.576;2023-12-29T11:53:59;14.90;6.30
490;DHT22;231;48.120;11.576;2023-12-29T11:56:30;14.90;6.10
490;DHT22;231;48.120;11.576;2023-12-29T11:59:15;15.00;6.00
490;DHT22;231;48.120;11.576;2023-12-29T12:01:45;15.10;5.80
490;DHT22;231;48.120;11.576;2023-12-29T12:04:35;15.20;5.40
490;DHT22;231;48.120;11.576;2023-12-29T12:07:03;15.30;5.30
490;DHT22;231;48.120;11.576;2023-12-29T12:09:30;15.30;5.20
490;DHT22;231;48.120;11.576;2023-12-29T12:11:58;15.30;5.30
490;DHT22;231;48.120;11.576;2023-12-29T12:14:47;15.40;5.20
490;DHT22;231;48.120;11.576;2023-12-29T12:17:31;15.40;5.50
490;DHT22;231;48.120;11.576;2023-12-29T12:20:00;15.50;4.90
490;DHT22;231;48.120;11.576;2023-12-29T12:22:30;15.50;5.00
490;DHT22;231;48.120;11.576;2023-12-29T12:24:57;15.50;4.80
490;DHT22;231;48.120;11.576;2023-12-29T12:27:25;15.40;4.60
490;DHT22;231;48.120;11.576;2023-12-29T12:29:53;15.10;4.80
490;DHT22;231;48.120;11.576;2023-12-29T12:32:23;14.90;5.30
490;DHT22;231;48.120;11.576;2023-12-29T12:34:52;14.80;5.80
490;DHT22;231;48.120;11.576;2023-12-29T12:37:19;14.70;5.90
490;DHT22;231;48.120;11.576;2023-12-29T12:39:46;14.70;6.00
490;DHT22;231;48.120;11.576;2023-12-29T12:42:13;14.60;6.00
490;DHT22;231;48.120;11.576;2023-12-29T12:44:42;14.60;6.10
490;DHT22;231;48.120;11.576;2023-12-29T12:47:16;14.50;6.40
490;DHT22;231;48.120;11.576;2023-12-29T12:49:44;14.40;6.50
490;DHT22;231;48.120;11.576;2023-12-29T12:52:12;14.30;6.60
490;DHT22;231;48.120;11.576;2023-12-29T12:54:39;14.30;6.80
490;DHT22;231;48.120;11.576;2023-12-29T12:57:07;14.10;7.00
490;DHT22;231;48.120;11.576;2023-12-29T12:59:34;14.10;7.20
490;DHT22;231;48.120;11.576;2023-12-29T13:02:02;14.00;6.90
490;DHT22;231;48.120;11.576;2023-12-29T13:04:31;13.80;7.10
490;DHT22;231;48.120;11.576;2023-12-29T13:06:58;13.70;7.20
490;DHT22;231;48.120;11.576;2023-12-29T13:09:26;13.60;7.50
490;DHT22;231;48.120;11.576;2023-12-29T13:12:08;13.60;7.40
490;DHT22;231;48.120;11.576;2023-12-29T13:14:35;13.50;7.50
490;DHT22;231;48.120;11.576;2023-12-29T13:17:06;13.50;7.50
490;DHT22;231;48.120;11.576;2023-12-29T13:19:33;13.40;7.60
490;DHT22;231;48.120;11.576;2023-12-29T13:22:00;13.40;7.90
490;DHT22;231;48.120;11.576;2023-12-29T13:24:30;13.30;7.70
490;DHT22;231;48.120;11.576;2023-12-29T13:27:02;13.30;7.70
490;DHT22;231;48.120;11.576;2023-12-29T13:29:29;13.20;7.80
490;DHT22;231;48.120;11.576;2023-12-29T13:31:59;13.20;7.70
490;DHT22;231;48.120;11.576;2023-12-29T13:34:34;13.10;8.00
490;DHT22;231;48.120;11.576;2023-12-29T13:37:07;13.00;8.40
490;DHT22;231;48.120;11.576;2023-12-29T13:39:40;12.90;8.30
490;DHT22;231;48.120;11.576;2023-12-29T13:42:11;12.90;8.80
490;DHT22;231;48.120;11.576;2023-12-29T13:44:40;12.80;9.10
490;DHT22;231;48.120;11.576;2023-12-29T13:47:09;12.70;9.30
490;DHT22;231;48.120;11.576;2023-12-29T13:49:37;12.70;9.30
490;DHT22;231;48.120;11.576;2023-12-29T13:52:05;12.60;9.60
490;DHT22;231;48.120;11.576;2023-12-29T13:54:41;12.50;9.80
490;DHT22;231;48.120;11.576;2023-12-29T13:57:09;12.50;10.70
490;DHT22;231;48.120;11.576;2023-12-29T13:59:36;12.40;10.20
490;DHT22;231;48.120;11.576;2023-12-29T14:02:19;12.30;10.10
490;DHT22;231;48.120;11.576;2023-12-29T14:04:46;12.20;9.90
490;DHT22;231;48.120;11.576;2023-12-29T14:07:14;12.10;10.10
490;DHT22;231;48.120;11.576;2023-12-29T14:09:42;12.10;10.10
490;DHT22;231;48.120;11.576;2023-12-29T14:12:09;12.10;10.30
490;DHT22;231;48.120;11.576;2023-12-29T14:14:36;12.10;10.20
490;DHT22;231;48.120;11.576;2023-12-29T14:17:04;12.00;10.10
490;DHT22;231;48.120;11.576;2023-12-29T14:19:37;12.00;9.90
490;DHT22;231;48.120;11.576;2023-12-29T14:22:04;12.00;10.00
490;DHT22;231;48.120;11.576;2023-12-29T20:26:59;8.00;40.10
490;DHT22;231;48.120;11.576;2023-12-29T20:29:27;8.10;40.30
490;DHT22;231;48.120;11.576;2023-12-29T20:31:55;8.20;39.40
490;DHT22;231;48.120;11.576;2023-12-29T20:34:27;8.30;40.00
490;DHT22;231;48.120;11.576;2023-12-29T20:36:55;8.30;39.40
490;DHT22;231;48.120;11.576;2023-12-29T20:39:22;8.30;39.40
490;DHT22;231;48.120;11.576;2023-12-29T20:41:49;8.40;39.40
490;DHT22;231;48.120;11.576;2023-12-29T20:44:18;8.40;39.50
490;DHT22;231;48.120;11.576;2023-12-29T20:46:46;8.40;39.30
490;DHT22;231;48.120;11.576;2023-12-29T20:49:15;8.50;39.20
490;DHT22;231;48.120;11.576;2023-12-29T20:51:43;8.40;38.80
490;DHT22;231;48.120;11.576;2023-12-29T20:54:12;8.40;38.70
490;DHT22;231;48.120;11.576;2023-12-29T20:56:39;8.40;39.20
490;DHT22;231;48.120;11.576;2023-12-29T20:59:07;8.40;39.20
490;DHT22;231;48.120;11.576;2023-12-29T21:01:38;8.40;38.00
490;DHT22;231;48.120;11.576;2023-12-29T21:04:08;8.50;37.50
490;DHT22;231;48.120;11.576;2023-12-29T21:06:37;8.50;36.80
490;DHT22;231;48.120;11.576;2023-12-29T21:09:07;8.50;36.10
490;DHT22;231;48.120;11.576;2023-12-29T21:11:36;8.60;36.00
490;DHT22;231;48.120;11.576;2023-12-29T21:14:03;8.70;34.40
490;DHT22;231;48.120;11.576;2023-12-29T21:16:30;8.70;33.50
490;DHT22;231;48.120;11.576;2023-12-29T21:18:59;8.70;33.50
490;DHT22;231;48.120;11.576;2023-12-29T21:21:28;8.70;33.10
490;DHT22;231;48.120;11.576;2023-12-29T21:23:56;8.70;33.30
490;DHT22;231;48.120;11.576;2023-12-29T21:26:23;8.80;33.10
490;DHT22;231;48.120;11.576;2023-12-29T21:29:19;8.70;33.30
490;DHT22;231;48.120;11.576;2023-12-29T21:31:53;8.70;33.80
490;DHT22;231;48.120;11.576;2023-12-29T21:34:26;8.70;33.50
490;DHT22;231;48.120;11.576;2023-12-29T21:36:54;8.60;34.10
490;DHT22;231;48.120;11.576;2023-12-29T21:39:36;8.60;34.50
490;DHT22;231;48.120;11.576;2023-12-29T21:42:27;8.60;35.60
490;DHT22;231;48.120;11.576;2023-12-29T21:45:33;8.50;36.20
490;DHT22;231;48.120;11.576;2023-12-29T21:48:36;8.50;37.40
490;DHT22;231;48.120;11.576;2023-12-29T21:52:01;8.40;39.00
490;DHT22;231;48.120;11.576;2023-12-29T21:54:54;8.40;40.50
490;DHT22;231;48.120;11.576;2023-12-29T22:04:49;8.40;41.60
490;DHT22;231;48.120;11.576;2023-12-29T22:08:11;8.40;41.20
